Time;durP1;ratioP1;P1;durP2;ratioP2;P2;SDS_P1;SDS_P2;PMS_P1;PMS_P2;Temp;Humidity;BMP_temperature;BMP_pressure;BME280_temperature;BME280_humidity;BME280_pressure;Samples;Min_cycle;Max_cycle;Signal;HPM_P1;HPM_P2
2022/09/28 00:01:05;;;;;;;;;;;;;;;10.64;74.95;97037.78;4917344;29;20359;-69
2022/09/28 00:03:32;;;;;;;;;;;;;;;10.63;75.03;97033.53;4916631;29;19923;-69
2022/09/28 00:06:03;;;;;;;;;;;;;;;10.65;75.16;97035.94;4916394;29;20443;-69
2022/09/28 00:08:30;;;;;;;;;;;;;;;10.66;75.01;97022.50;4914759;29;19971;-69
2022/09/28 00:10:57;;;;;;;;;;;;;;;10.68;75.14;97018.81;4916600;29;19923;-70
2022/09/28 00:13:23;;;;;;;;;;;;;;;10.70;75.54;97006.19;4918580;29;19923;-69
2022/09/28 00:16:00;;;;;;;;;;;;;;;10.70;75.37;96982.41;4921557;29;19930;-69
2022/09/28 00:18:27;;;;;;;;;;;;;;;10.71;75.77;96976.88;4923038;29;19923;-69
2022/09/28 00:21:00;;;;;;;;;;;;;;;10.73;75.69;96980.06;4919813;29;19923;-69
2022/09/28 00:23:27;;;;;;;;;;;;;;;10.74;75.44;96970.31;4918488;29;19930;-69
2022/09/28 00:25:53;;;;;;;;;;;;;;;10.74;75.50;96963.19;4919665;29;20339;-69
2022/09/28 00:28:19;;;;;;;;;;;;;;;10.71;75.22;96955.72;4919064;29;19951;-69
2022/09/28 00:30:46;;;;;;;;;;;;;;;10.71;75.29;96958.38;4918713;29;19923;-69
2022/09/28 00:33:12;;;;;;;;;;;;;;;10.71;75.43;96953.09;4918408;29;19971;-69
2022/09/28 00:35:39;;;;;;;;;;;;;;;10.72;75.71;96956.53;4918391;29;20383;-69
2022/09/28 00:38:08;;;;;;;;;;;;;;;10.70;75.51;96956.78;4918035;29;20443;-70
2022/09/28 00:40:34;;;;;;;;;;;;;;;10.69;75.70;96957.78;4919048;29;19923;-69
2022/09/28 00:43:15;;;;;;;;;;;;;;;10.68;75.37;96956.19;4905482;29;19951;-69
2022/09/28 00:45:41;;;;;;;;;;;;;;;10.65;75.34;96964.59;4924754;29;19923;-69
2022/09/28 00:48:08;;;;;;;;;;;;;;;10.62;75.49;96960.59;4926050;29;19948;-69
2022/09/28 00:50:36;;;;;;;;;;;;;;;10.63;75.49;96959.56;4924793;29;19953;-69
2022/09/28 00:53:02;;;;;;;;;;;;;;;10.65;75.93;96959.31;4925670;29;19923;-69
2022/09/28 00:55:33;;;;;;;;;;;;;;;10.64;75.53;96957.72;4925732;29;19923;-68
2022/09/28 00:58:02;;;;;;;;;;;;;;;10.61;75.47;96948.44;4928373;29;19975;-68
2022/09/28 01:00:28;;;;;;;;;;;;;;;10.61;75.85;96959.00;4928561;29;19923;-70
2022/09/28 01:02:55;;;;;;;;;;;;;;;10.61;76.01;96956.38;4924351;29;19990;-69
2022/09/28 01:05:23;;;;;;;;;;;;;;;10.62;75.64;96955.31;4924383;29;19923;-69
2022/09/28 01:07:49;;;;;;;;;;;;;;;10.61;75.24;96952.88;4924995;29;19923;-69
2022/09/28 01:10:17;;;;;;;;;;;;;;;10.61;75.40;96944.97;4925323;29;19930;-68
2022/09/28 01:12:43;;;;;;;;;;;;;;;10.61;75.63;96945.78;4924763;29;19934;-69
2022/09/28 01:15:10;;;;;;;;;;;;;;;10.62;75.26;96949.22;4924195;29;19923;-70
2022/09/28 01:17:47;;;;;;;;;;;;;;;10.60;74.83;96953.94;4904829;29;19923;-70
2022/09/28 01:20:43;;;;;;;;;;;;;;;10.59;75.02;96945.22;4918355;29;19998;-70
2022/09/28 01:23:14;;;;;;;;;;;;;;;10.61;75.10;96940.50;4916925;29;19923;-69
2022/09/28 01:25:53;;;;;;;;;;;;;;;10.65;75.33;96940.81;4917782;29;20287;-70
2022/09/28 01:28:24;;;;;;;;;;;;;;;10.66;74.95;96942.44;4917370;29;19923;-69
2022/09/28 01:31:03;;;;;;;;;;;;;;;10.65;74.99;96941.63;4918944;29;19923;-69
2022/09/28 01:33:42;;;;;;;;;;;;;;;10.63;74.79;96937.63;4917498;29;19930;-69
2022/09/28 01:36:11;;;;;;;;;;;;;;;10.62;74.77;96946.59;4916715;29;19970;-69
2022/09/28 01:38:45;;;;;;;;;;;;;;;10.62;74.84;96941.31;4917180;29;19930;-69
2022/09/28 01:41:12;;;;;;;;;;;;;;;10.65;75.15;96939.00;4917179;29;19923;-69
2022/09/28 01:43:41;;;;;;;;;;;;;;;10.65;74.89;96932.88;4918367;29;19923;-69
2022/09/28 01:46:13;;;;;;;;;;;;;;;10.64;74.90;96926.78;4916661;29;20335;-68
2022/09/28 01:48:49;;;;;;;;;;;;;;;10.62;74.72;96928.09;4917183;29;19951;-69
2022/09/28 01:51:23;;;;;;;;;;;;;;;10.63;74.84;96921.75;4917060;29;19985;-69
2022/09/28 01:53:52;;;;;;;;;;;;;;;10.65;74.92;96917.03;4917215;29;19927;-69
2022/09/28 01:56:24;;;;;;;;;;;;;;;10.64;74.94;96913.59;4916727;29;19954;-69
2022/09/28 01:58:58;;;;;;;;;;;;;;;10.63;74.96;96906.72;4901725;29;19923;-68
2022/09/28 02:01:28;;;;;;;;;;;;;;;10.62;74.81;96904.31;4917030;29;20335;-68
2022/09/28 02:04:11;;;;;;;;;;;;;;;10.62;75.10;96901.66;4917011;29;20302;-68
2022/09/28 02:06:44;;;;;;;;;;;;;;;10.60;74.95;96903.75;4916360;29;19930;-69
2022/09/28 02:09:15;;;;;;;;;;;;;;;10.57;74.95;96906.84;4916982;29;19923;-68
2022/09/28 02:11:49;;;;;;;;;;;;;;;10.53;74.91;96911.84;4918542;29;19998;-68
2022/09/28 02:14:18;;;;;;;;;;;;;;;10.52;74.95;96910.22;4922904;29;20025;-68
2022/09/28 02:16:47;;;;;;;;;;;;;;;10.52;75.26;96910.22;4921811;29;19926;-68
2022/09/28 02:19:25;;;;;;;;;;;;;;;10.49;74.98;96900.13;4921005;29;19923;-68
2022/09/28 02:22:00;;;;;;;;;;;;;;;10.48;75.07;96910.94;4921002;29;19923;-68
2022/09/28 02:24:34;;;;;;;;;;;;;;;10.48;75.36;96900.34;4921002;29;19929;-69
2022/09/28 02:27:06;;;;;;;;;;;;;;;10.46;75.40;96900.59;4916571;29;19923;-69
2022/09/28 02:29:33;;;;;;;;;;;;;;;10.47;75.45;96906.69;4916577;29;19966;-68
2022/09/28 02:31:59;;;;;;;;;;;;;;;10.47;75.43;96904.03;4916441;29;19930;-69
2022/09/28 02:34:26;;;;;;;;;;;;;;;10.45;75.27;96904.28;4916124;29;19963;-69
2022/09/28 02:36:53;;;;;;;;;;;;;;;10.43;75.20;96895.00;4916996;29;19923;-69
2022/09/28 02:39:19;;;;;;;;;;;;;;;10.41;75.38;96898.69;4917479;29;19930;-69
2022/09/28 02:42:10;;;;;;;;;;;;;;;10.39;75.47;96897.31;4916056;29;19927;-69
2022/09/28 02:44:37;;;;;;;;;;;;;;;10.38;75.42;96899.16;4916283;29;20405;-69
2022/09/28 02:47:10;;;;;;;;;;;;;;;10.36;75.71;96909.13;4915505;29;19923;-69
2022/09/28 02:49:47;;;;;;;;;;;;;;;10.38;75.86;96901.00;4915936;29;19927;-69
2022/09/28 02:52:32;;;;;;;;;;;;;;;10.38;75.43;96901.78;4915900;29;19922;-69
2022/09/28 02:55:13;;;;;;;;;;;;;;;10.37;75.84;96897.56;4916956;29;20379;-69
2022/09/28 02:57:40;;;;;;;;;;;;;;;10.38;75.68;96899.16;4915387;29;20315;-69
2022/09/28 03:00:20;;;;;;;;;;;;;;;10.38;75.68;96899.16;4915765;29;20332;-69
2022/09/28 03:03:05;;;;;;;;;;;;;;;10.37;75.78;96892.28;4920258;29;19971;-69
2022/09/28 03:05:40;;;;;;;;;;;;;;;10.38;76.03;96896.50;4915687;29;19923;-69
2022/09/28 03:08:22;;;;;;;;;;;;;;;10.38;75.76;96899.16;4915452;29;19927;-69
2022/09/28 03:11:01;;;;;;;;;;;;;;;10.36;75.83;96901.22;4915673;29;19923;-69
2022/09/28 03:13:29;;;;;;;;;;;;;;;10.33;75.67;96891.16;4915694;29;19923;-69
2022/09/28 03:16:12;;;;;;;;;;;;;;;10.32;76.11;96892.16;4915459;29;19931;-68
2022/09/28 03:18:40;;;;;;;;;;;;;;;10.31;75.94;96895.84;4915397;29;19923;-69
2022/09/28 03:21:08;;;;;;;;;;;;;;;10.28;76.04;96890.22;4916626;29;20409;-69
2022/09/28 03:23:34;;;;;;;;;;;;;;;10.26;75.93;96887.03;4916561;29;19927;-69
2022/09/28 03:26:01;;;;;;;;;;;;;;;10.22;75.93;96885.88;4915213;29;20034;-69
2022/09/28 03:28:28;;;;;;;;;;;;;;;10.20;76.03;96893.22;4914822;29;19923;-69
2022/09/28 03:30:56;;;;;;;;;;;;;;;10.19;76.10;96897.72;4915271;29;19927;-68
2022/09/28 03:33:23;;;;;;;;;;;;;;;10.18;75.97;96896.91;4916535;29;19954;-69
2022/09/28 03:35:49;;;;;;;;;;;;;;;10.17;76.18;96897.16;4914978;29;20435;-69
2022/09/28 03:38:17;;;;;;;;;;;;;;;10.17;76.02;96884.75;4914749;29;19979;-68
2022/09/28 03:40:55;;;;;;;;;;;;;;;10.18;76.62;96891.63;4916039;29;19922;-69
2022/09/28 03:43:22;;;;;;;;;;;;;;;10.20;76.43;96885.31;4915787;29;20010;-68
2022/09/28 03:45:54;;;;;;;;;;;;;;;10.18;76.42;96883.72;4915059;29;19927;-68
2022/09/28 03:48:26;;;;;;;;;;;;;;;10.17;76.35;96889.25;4914870;29;19923;-69
2022/09/28 03:50:59;;;;;;;;;;;;;;;10.14;76.73;96894.97;4915524;29;19932;-68
2022/09/28 03:53:25;;;;;;;;;;;;;;;10.10;76.46;96897.28;4915937;29;19929;-69
2022/09/28 03:55:52;;;;;;;;;;;;;;;10.09;76.37;96890.41;4915289;29;19930;-68
2022/09/28 03:58:19;;;;;;;;;;;;;;;10.09;76.81;96884.34;4916091;29;20018;-68
2022/09/28 04:03:37;;;;;;;;;;;;;;;10.06;76.75;96893.50;4913407;29;19930;-64
2022/09/28 04:06:03;;;;;;;;;;;;;;;10.07;76.83;96889.03;4914875;29;19923;-64
2022/09/28 04:08:30;;;;;;;;;;;;;;;10.06;76.50;96890.88;4898817;29;20268;-64
2022/09/28 04:10:58;;;;;;;;;;;;;;;10.07;76.58;96887.19;4914893;29;19923;-64
2022/09/28 04:13:24;;;;;;;;;;;;;;;10.07;76.89;96891.69;4897242;29;19923;-64
2022/09/28 04:15:55;;;;;;;;;;;;;;;10.07;76.91;96889.03;4896429;29;19923;-64
2022/09/28 04:18:22;;;;;;;;;;;;;;;10.07;76.65;96895.13;4895529;29;19923;-65
2022/09/28 04:21:13;;;;;;;;;;;;;;;10.05;76.68;96893.75;4886474;29;19930;-65
2022/09/28 04:24:09;;;;;;;;;;;;;;;10.03;76.71;96906.38;4887298;29;19928;-65
2022/09/28 04:26:36;;;;;;;;;;;;;;;9.98;77.07;96893.88;4895935;29;19929;-65
2022/09/28 04:29:18;;;;;;;;;;;;;;;9.96;76.81;96889.88;4880627;29;20014;-65
2022/09/28 04:31:54;;;;;;;;;;;;;;;9.91;76.82;96898.50;4895954;29;19930;-66
2022/09/28 04:34:32;;;;;;;;;;;;;;;9.85;77.23;96894.97;4895891;29;19934;-66
2022/09/28 04:37:03;;;;;;;;;;;;;;;9.80;76.85;96904.63;4895453;29;20316;-66
2022/09/28 04:39:30;;;;;;;;;;;;;;;9.75;77.37;96905.31;4911819;29;19923;-66
2022/09/28 04:41:56;;;;;;;;;;;;;;;9.73;77.27;96911.88;4895759;29;20011;-66
2022/09/28 04:44:23;;;;;;;;;;;;;;;9.70;77.41;96910.50;4880360;29;19923;-66
2022/09/28 04:46:55;;;;;;;;;;;;;;;9.67;77.48;96909.13;4880585;29;19967;-66
2022/09/28 04:49:42;;;;;;;;;;;;;;;9.63;77.71;96896.63;4886034;29;19927;-66
2022/09/28 04:52:25;;;;;;;;;;;;;;;9.60;77.61;96907.66;4897112;29;19927;-66
2022/09/28 04:54:51;;;;;;;;;;;;;;;9.57;77.65;96908.91;4897218;29;19934;-66
2022/09/28 04:57:18;;;;;;;;;;;;;;;9.54;77.71;96911.22;4895220;29;19927;-66
2022/09/28 04:59:44;;;;;;;;;;;;;;;9.52;77.68;96908.00;4898996;29;19923;-66
2022/09/28 05:02:13;;;;;;;;;;;;;;;9.50;77.61;96917.97;4906839;29;20290;-66
2022/09/28 05:05:12;;;;;;;;;;;;;;;9.47;77.89;96911.34;4865871;29;20392;-66
2022/09/28 05:08:02;;;;;;;;;;;;;;;9.45;78.22;96921.31;4910800;29;19933;-66
2022/09/28 05:10:28;;;;;;;;;;;;;;;9.42;78.23;96917.28;4902166;29;19978;-66
2022/09/28 05:12:55;;;;;;;;;;;;;;;9.39;78.00;96925.69;4918922;29;19962;-66
2022/09/28 05:15:21;;;;;;;;;;;;;;;9.39;77.97;96927.53;4902511;29;19938;-66
2022/09/28 05:17:47;;;;;;;;;;;;;;;9.39;78.09;96923.03;4885733;29;19927;-66
2022/09/28 05:20:43;;;;;;;;;;;;;;;9.40;77.95;96937.03;4902025;29;19934;-66
2022/09/28 05:23:11;;;;;;;;;;;;;;;9.40;78.07;96929.91;4917558;29;19923;-65
2022/09/28 05:25:39;;;;;;;;;;;;;;;9.41;77.96;96934.16;4901668;29;19923;-66
2022/09/28 05:28:19;;;;;;;;;;;;;;;9.39;77.88;96936.22;4916974;29;19923;-66
2022/09/28 05:31:05;;;;;;;;;;;;;;;9.37;78.13;96940.13;4904435;29;20018;-66
2022/09/28 05:34:07;;;;;;;;;;;;;;;9.40;78.62;96939.66;4878681;29;20456;-66
2022/09/28 05:36:34;;;;;;;;;;;;;;;9.48;78.30;96959.63;4881421;29;19923;-66
2022/09/28 05:39:02;;;;;;;;;;;;;;;9.52;78.26;96948.38;4901571;29;19974;-65
2022/09/28 05:41:29;;;;;;;;;;;;;;;9.56;77.86;96952.16;4901203;29;19963;-66
2022/09/28 05:43:56;;;;;;;;;;;;;;;9.59;77.79;96966.69;4918319;29;19923;-66
2022/09/28 05:46:23;;;;;;;;;;;;;;;9.59;77.84;96961.44;4900755;29;19923;-66
2022/09/28 05:48:51;;;;;;;;;;;;;;;9.60;77.69;96961.22;4901318;29;19923;-65
2022/09/28 05:51:18;;;;;;;;;;;;;;;9.61;77.63;96964.66;4916971;29;19930;-65
2022/09/28 05:53:44;;;;;;;;;;;;;;;9.63;77.49;96968.69;4901088;29;20378;-66
2022/09/28 05:56:11;;;;;;;;;;;;;;;9.64;77.63;96964.19;4916310;29;20013;-66
2022/09/28 05:58:42;;;;;;;;;;;;;;;9.64;77.66;96961.56;4917257;29;20021;-65
2022/09/28 06:01:09;;;;;;;;;;;;;;;9.61;77.44;96964.66;4917055;29;20303;-65
2022/09/28 06:03:36;;;;;;;;;;;;;;;9.59;77.49;96969.34;4916821;29;19970;-65
2022/09/28 06:06:03;;;;;;;;;;;;;;;9.57;77.52;96968.78;4900926;29;19927;-65
2022/09/28 06:08:31;;;;;;;;;;;;;;;9.56;77.61;96972.47;4900404;29;19923;-65
2022/09/28 06:11:17;;;;;;;;;;;;;;;9.55;77.72;96971.66;4917599;29;20063;-66
2022/09/28 06:13:45;;;;;;;;;;;;;;;9.55;77.49;96970.84;4901017;29;19923;-65
2022/09/28 06:16:15;;;;;;;;;;;;;;;9.54;77.56;96972.69;4900375;29;19930;-65
2022/09/28 06:18:42;;;;;;;;;;;;;;;9.54;77.75;96975.31;4900830;29;19923;-65
2022/09/28 06:21:27;;;;;;;;;;;;;;;9.57;77.61;96985.41;4917581;29;19930;-65
2022/09/28 06:23:53;;;;;;;;;;;;;;;9.60;77.51;96982.31;4900813;29;20390;-65
2022/09/28 06:26:20;;;;;;;;;;;;;;;9.66;77.52;96985.88;4900613;29;20359;-65
2022/09/28 06:28:47;;;;;;;;;;;;;;;9.71;77.53;96988.59;4900957;29;19925;-65
2022/09/28 06:31:14;;;;;;;;;;;;;;;9.75;77.47;96992.38;4900750;29;19950;-65
2022/09/28 06:33:47;;;;;;;;;;;;;;;9.80;77.46;96994.34;4900798;29;20374;-65
2022/09/28 06:36:13;;;;;;;;;;;;;;;9.84;77.37;96993.66;4900132;29;20304;-66
2022/09/28 06:38:40;;;;;;;;;;;;;;;9.88;77.35;96992.16;4900602;29;19930;-65
2022/09/28 06:41:07;;;;;;;;;;;;;;;9.92;77.11;96995.94;4904262;29;20026;-65
2022/09/28 06:43:38;;;;;;;;;;;;;;;9.97;77.06;96991.81;4907555;29;19927;-65
2022/09/28 06:46:11;;;;;;;;;;;;;;;10.02;77.16;96990.06;4924569;29;19934;-65
2022/09/28 06:48:38;;;;;;;;;;;;;;;10.06;77.10;96991.19;4923916;29;19956;-65
2022/09/28 06:51:07;;;;;;;;;;;;;;;10.11;76.88;96993.13;4923304;29;19923;-65
2022/09/28 06:53:52;;;;;;;;;;;;;;;10.16;76.76;97003.78;4920428;29;20058;-65
2022/09/28 06:56:35;;;;;;;;;;;;;;;10.22;76.75;97004.72;4901293;29;19923;-65
2022/09/28 06:59:02;;;;;;;;;;;;;;;10.26;76.34;97006.69;4916891;29;20402;-65
2022/09/28 07:01:29;;;;;;;;;;;;;;;10.32;76.18;97011.00;4899932;29;20472;-65
2022/09/28 07:04:10;;;;;;;;;;;;;;;10.37;76.00;97024.34;4916928;29;19930;-65
2022/09/28 07:06:59;;;;;;;;;;;;;;;10.44;75.80;97023.38;4916251;29;19949;-65
2022/09/28 07:09:44;;;;;;;;;;;;;;;10.46;75.85;97030.03;4903145;29;20025;-65
2022/09/28 07:12:35;;;;;;;;;;;;;;;10.51;75.35;97026.69;4917042;29;19930;-65
2022/09/28 07:15:11;;;;;;;;;;;;;;;10.56;75.49;97027.59;4916593;29;20284;-65
2022/09/28 07:17:37;;;;;;;;;;;;;;;10.64;75.25;97036.97;4916129;29;19923;-66
2022/09/28 07:20:24;;;;;;;;;;;;;;;10.76;75.07;97036.94;4899632;29;19923;-65
2022/09/28 07:22:54;;;;;;;;;;;;;;;10.86;75.02;97039.78;4898786;29;20315;-65
2022/09/28 07:25:22;;;;;;;;;;;;;;;10.95;74.55;97046.28;4899879;29;20284;-65
2022/09/28 07:28:06;;;;;;;;;;;;;;;10.92;73.71;97052.03;4899168;29;20387;-66
2022/09/28 07:30:51;;;;;;;;;;;;;;;10.85;73.81;97056.66;4916823;29;19930;-65
2022/09/28 07:33:37;;;;;;;;;;;;;;;10.90;73.57;97068.16;4916275;29;19923;-65
2022/09/28 07:36:29;;;;;;;;;;;;;;;11.03;73.59;97068.91;4915171;29;19927;-65
2022/09/28 07:38:56;;;;;;;;;;;;;;;11.07;73.54;97064.75;4915160;29;19971;-65
2022/09/28 07:41:31;;;;;;;;;;;;;;;11.11;73.12;97071.16;4899362;29;19986;-65
2022/09/28 07:44:06;;;;;;;;;;;;;;;11.27;72.95;97073.03;4899513;29;19974;-66
2022/09/28 07:46:35;;;;;;;;;;;;;;;11.41;72.67;97068.22;4898840;29;20358;-65
2022/09/28 07:49:21;;;;;;;;;;;;;;;11.55;72.10;97066.03;4899401;29;19927;-66
2022/09/28 07:52:06;;;;;;;;;;;;;;;11.64;71.83;97065.41;4916565;29;20039;-66
2022/09/28 07:54:45;;;;;;;;;;;;;;;11.70;71.60;97070.78;4899357;29;19923;-66
2022/09/28 07:57:32;;;;;;;;;;;;;;;11.84;71.59;97077.38;4901445;29;19974;-66
2022/09/28 08:00:20;;;;;;;;;;;;;;;11.96;70.96;97078.09;4915743;29;20013;-66
2022/09/28 08:02:47;;;;;;;;;;;;;;;11.99;70.77;97082.88;4914771;29;19923;-66
2022/09/28 08:05:20;;;;;;;;;;;;;;;12.07;69.75;97090.41;4898874;29;20391;-65
2022/09/28 08:07:47;;;;;;;;;;;;;;;12.22;69.14;97089.03;4915305;29;20143;-66
2022/09/28 08:10:15;;;;;;;;;;;;;;;12.30;68.72;97094.72;4899141;29;19923;-65
2022/09/28 08:13:02;;;;;;;;;;;;;;;12.37;68.70;97091.88;4916609;29;20037;-65
2022/09/28 08:15:51;;;;;;;;;;;;;;;12.46;68.40;97103.66;4916597;29;19930;-65
2022/09/28 08:18:30;;;;;;;;;;;;;;;12.46;68.13;97102.88;4915138;29;19966;-65
2022/09/28 08:23:42;;;;;;;;;;;;;;;12.41;67.47;97106.25;4914897;29;19923;-65
2022/09/28 08:26:09;;;;;;;;;;;;;;;12.43;66.98;97109.44;4898764;29;19954;-66
2022/09/28 08:28:42;;;;;;;;;;;;;;;12.46;67.30;97113.47;4899593;29;19929;-66
2022/09/28 08:31:28;;;;;;;;;;;;;;;12.49;66.96;97113.78;4915441;29;19966;-66
2022/09/28 08:34:09;;;;;;;;;;;;;;;12.45;65.93;97114.50;4918263;29;19923;-65
2022/09/28 08:37:03;;;;;;;;;;;;;;;12.37;66.73;97110.44;4902928;29;20044;-65
2022/09/28 08:40:01;;;;;;;;;;;;;;;12.40;66.85;97115.22;4920335;29;20401;-66
2022/09/28 08:42:56;;;;;;;;;;;;;;;12.42;66.62;97121.09;4918706;29;19979;-66
2022/09/28 08:45:41;;;;;;;;;;;;;;;12.34;66.59;97121.53;4920475;29;19930;-67
2022/09/28 08:48:47;;;;;;;;;;;;;;;12.20;66.03;97125.53;4904184;29;20429;-67
2022/09/28 08:51:59;;;;;;;;;;;;;;;12.05;66.43;97132.25;4909404;29;20006;-64
2022/09/28 08:54:42;;;;;;;;;;;;;;;12.03;66.59;97138.81;4920178;29;19947;-65
2022/09/28 08:57:21;;;;;;;;;;;;;;;12.03;66.68;97138.81;4903944;29;19926;-65
2022/09/28 08:59:52;;;;;;;;;;;;;;;12.08;66.69;97142.38;4919957;29;19963;-65
2022/09/28 09:02:38;;;;;;;;;;;;;;;12.23;66.52;97148.91;4919863;29;20344;-64
2022/09/28 09:05:18;;;;;;;;;;;;;;;12.48;65.82;97153.75;4904119;29;19954;-64
2022/09/28 09:08:21;;;;;;;;;;;;;;;12.64;65.25;97148.41;4919825;29;19994;-65
2022/09/28 09:10:52;;;;;;;;;;;;;;;12.92;64.99;97148.47;4904715;29;19926;-66
2022/09/28 09:13:27;;;;;;;;;;;;;;;13.13;64.54;97145.00;4903647;29;19962;-66
2022/09/28 09:15:54;;;;;;;;;;;;;;;13.25;64.31;97147.53;4919640;29;20287;-65
2022/09/28 09:18:48;;;;;;;;;;;;;;;13.25;64.09;97151.00;4918031;29;20043;-65
2022/09/28 09:21:40;;;;;;;;;;;;;;;13.11;63.15;97147.91;4903466;29;19923;-65
2022/09/28 09:24:29;;;;;;;;;;;;;;;12.94;63.32;97155.16;4901755;29;19923;-66
2022/09/28 09:27:04;;;;;;;;;;;;;;;12.75;63.29;97152.00;4916861;29;20291;-67
2022/09/28 09:29:31;;;;;;;;;;;;;;;12.59;63.28;97158.94;4902033;29;20306;-65
2022/09/28 09:32:02;;;;;;;;;;;;;;;12.50;63.87;97159.63;4901605;29;20330;-66
2022/09/28 09:34:30;;;;;;;;;;;;;;;12.48;63.91;97169.66;4901605;29;19926;-66
2022/09/28 09:37:20;;;;;;;;;;;;;;;12.42;64.09;97160.06;4917506;29;20404;-66
2022/09/28 09:40:11;;;;;;;;;;;;;;;12.53;64.24;97161.78;4918799;29;20067;-65
2022/09/28 09:43:23;;;;;;;;;;;;;;;12.67;63.10;97156.94;4918283;29;19955;-65
2022/09/28 09:46:17;;;;;;;;;;;;;;;12.76;62.57;97161.53;4917237;29;19973;-65
2022/09/28 09:48:57;;;;;;;;;;;;;;;12.85;61.39;97156.63;4916770;29;19930;-66
2022/09/28 09:51:30;;;;;;;;;;;;;;;12.98;61.16;97163.38;4901993;29;19927;-66
2022/09/28 09:54:20;;;;;;;;;;;;;;;13.10;60.67;97161.41;4917301;29;19931;-66
2022/09/28 09:56:53;;;;;;;;;;;;;;;13.23;59.82;97168.25;4895784;29;20046;-66
2022/09/28 09:59:41;;;;;;;;;;;;;;;13.37;58.87;97162.25;4916869;29;20410;-66
2022/09/28 10:02:23;;;;;;;;;;;;;;;13.41;58.99;97165.22;4916986;29;20297;-66
2022/09/28 10:05:10;;;;;;;;;;;;;;;13.28;59.17;97157.66;4901330;29;19954;-66
2022/09/28 10:07:40;;;;;;;;;;;;;;;13.22;59.51;97167.38;4916365;29;19923;-66
2022/09/28 10:10:21;;;;;;;;;;;;;;;13.35;59.07;97163.59;4918123;29;19971;-66
2022/09/28 10:12:51;;;;;;;;;;;;;;;13.47;58.91;97158.09;4901098;29;19923;-66
2022/09/28 10:15:26;;;;;;;;;;;;;;;13.58;58.47;97165.13;4901724;29;19975;-66
2022/09/28 10:18:11;;;;;;;;;;;;;;;13.67;58.53;97155.63;4916107;29;19923;-66
2022/09/28 10:20:56;;;;;;;;;;;;;;;13.80;58.28;97167.72;4917782;29;19990;-65
2022/09/28 10:23:35;;;;;;;;;;;;;;;13.93;57.39;97161.19;4901286;29;19978;-66
2022/09/28 10:26:09;;;;;;;;;;;;;;;13.99;57.53;97157.50;4900819;29;19958;-66
2022/09/28 10:28:41;;;;;;;;;;;;;;;14.05;57.16;97157.28;4900637;29;20026;-67
2022/09/28 10:31:27;;;;;;;;;;;;;;;14.18;57.09;97163.22;4900907;29;19923;-66
2022/09/28 10:33:56;;;;;;;;;;;;;;;14.32;57.24;97167.03;4916297;29;19959;-67
2022/09/28 10:36:25;;;;;;;;;;;;;;;14.42;56.27;97164.44;4915815;29;19970;-66
2022/09/28 10:38:53;;;;;;;;;;;;;;;14.39;56.71;97162.28;4916189;29;19970;-67
2022/09/28 10:41:30;;;;;;;;;;;;;;;14.38;56.32;97168.66;4900224;29;20356;-67
2022/09/28 10:44:05;;;;;;;;;;;;;;;14.35;55.99;97167.31;4917454;29;19939;-67
2022/09/28 10:47:00;;;;;;;;;;;;;;;14.33;55.94;97168.66;4905364;29;19994;-66
2022/09/28 10:49:36;;;;;;;;;;;;;;;14.46;56.01;97178.03;4915992;29;19923;-65
2022/09/28 10:52:07;;;;;;;;;;;;;;;14.75;56.23;97167.84;4900172;29;19923;-66
2022/09/28 10:54:51;;;;;;;;;;;;;;;15.04;55.28;97168.22;4900355;29;20272;-64
2022/09/28 10:57:32;;;;;;;;;;;;;;;15.30;54.74;97159.22;4899529;29;19939;-65
2022/09/28 11:00:05;;;;;;;;;;;;;;;15.50;54.75;97163.81;4915787;29;19923;-65
2022/09/28 11:02:39;;;;;;;;;;;;;;;15.50;53.91;97169.13;4900828;29;19927;-65
2022/09/28 11:05:20;;;;;;;;;;;;;;;15.35;53.44;97161.94;4915721;29;19923;-64
2022/09/28 11:07:48;;;;;;;;;;;;;;;15.17;53.71;97164.25;4899391;29;20394;-65
2022/09/28 11:10:20;;;;;;;;;;;;;;;15.03;53.55;97155.97;4899825;29;20370;-64
2022/09/28 11:12:48;;;;;;;;;;;;;;;15.00;53.99;97165.28;4899829;29;19930;-65
2022/09/28 11:15:20;;;;;;;;;;;;;;;15.11;53.21;97166.13;4915530;29;19923;-65
2022/09/28 11:17:48;;;;;;;;;;;;;;;15.15;52.87;97150.44;4914954;29;19939;-65
2022/09/28 11:20:24;;;;;;;;;;;;;;;15.16;52.81;97158.16;4899858;29;20446;-65
2022/09/28 11:23:16;;;;;;;;;;;;;;;15.23;52.73;97156.03;4899702;29;20344;-65
2022/09/28 11:25:54;;;;;;;;;;;;;;;15.37;52.05;97153.66;4875076;29;20006;-64
2022/09/28 11:28:22;;;;;;;;;;;;;;;15.44;51.35;97154.22;4914819;29;20383;-65
2022/09/28 11:30:51;;;;;;;;;;;;;;;15.45;51.19;97149.69;4915361;29;19923;-65
2022/09/28 11:33:29;;;;;;;;;;;;;;;15.50;51.48;97152.34;4900753;29;19923;-64
2022/09/28 11:36:28;;;;;;;;;;;;;;;15.49;50.92;97161.41;4908268;29;19951;-64
2022/09/28 11:39:10;;;;;;;;;;;;;;;15.41;51.06;97157.41;4899447;29;20010;-64
2022/09/28 11:41:54;;;;;;;;;;;;;;;15.36;50.98;97160.06;4899259;29;20001;-64
2022/09/28 11:44:47;;;;;;;;;;;;;;;15.36;51.01;97157.41;4899499;29;20015;-66
2022/09/28 11:47:30;;;;;;;;;;;;;;;15.38;50.81;97155.25;4914969;29;20315;-65
2022/09/28 11:50:02;;;;;;;;;;;;;;;15.36;50.67;97146.75;4915113;29;19923;-65
2022/09/28 11:52:49;;;;;;;;;;;;;;;15.31;50.34;97160.84;4915071;29;19927;-66
2022/09/28 11:55:15;;;;;;;;;;;;;;;15.23;50.09;97152.59;4899426;29;19934;-65
2022/09/28 11:57:45;;;;;;;;;;;;;;;15.19;50.85;97154.97;4914657;29;20410;-66
2022/09/28 12:00:14;;;;;;;;;;;;;;;15.24;50.86;97149.66;4914961;29;19966;-65
2022/09/28 12:03:05;;;;;;;;;;;;;;;15.25;50.08;97142.47;4914930;29;19931;-66
2022/09/28 12:05:31;;;;;;;;;;;;;;;15.25;50.52;97155.78;4899478;29;19929;-66
2022/09/28 12:08:08;;;;;;;;;;;;;;;15.25;50.20;97155.78;4915216;29;19923;-65
2022/09/28 12:10:59;;;;;;;;;;;;;;;15.23;50.61;97152.59;4919988;29;19995;-65
2022/09/28 12:13:46;;;;;;;;;;;;;;;15.28;50.13;97156.06;4920335;29;20078;-66
2022/09/28 12:16:13;;;;;;;;;;;;;;;15.28;50.20;97149.94;4919397;29;19930;-66
2022/09/28 12:19:12;;;;;;;;;;;;;;;15.33;50.35;97158.72;4902846;29;20021;-65
2022/09/28 12:21:42;;;;;;;;;;;;;;;15.46;49.97;97154.75;4903134;29;19930;-65
2022/09/28 12:24:31;;;;;;;;;;;;;;;15.49;50.18;97156.09;4918996;29;19923;-65
2022/09/28 12:26:57;;;;;;;;;;;;;;;15.54;49.83;97159.56;4919562;29;19930;-65
2022/09/28 12:29:47;;;;;;;;;;;;;;;15.55;49.58;97160.34;4903143;29;20332;-66
2022/09/28 12:32:25;;;;;;;;;;;;;;;15.52;49.60;97160.91;4913151;29;19979;-65
2022/09/28 12:34:51;;;;;;;;;;;;;;;15.51;49.54;97156.63;4920449;29;19930;-65
2022/09/28 12:37:21;;;;;;;;;;;;;;;15.55;49.63;97155.84;4919024;29;19930;-65
2022/09/28 12:40:05;;;;;;;;;;;;;;;15.63;49.47;97162.50;4920468;29;19930;-65
2022/09/28 12:42:44;;;;;;;;;;;;;;;15.71;49.47;97156.66;4918949;29;19978;-65
2022/09/28 12:45:16;;;;;;;;;;;;;;;15.75;49.14;97155.06;4920095;29;19928;-65
2022/09/28 12:48:03;;;;;;;;;;;;;;;15.82;49.14;97154.81;4918696;29;20034;-66
2022/09/28 12:50:36;;;;;;;;;;;;;;;15.99;48.89;97157.22;4903059;29;20446;-65
2022/09/28 12:53:05;;;;;;;;;;;;;;;16.15;48.61;97144.69;4918968;29;19923;-66
2022/09/28 12:55:32;;;;;;;;;;;;;;;16.35;48.43;97148.09;4921040;29;20336;-65
2022/09/28 12:58:05;;;;;;;;;;;;;;;16.60;48.26;97136.56;4920191;29;19923;-65
2022/09/28 13:00:36;;;;;;;;;;;;;;;16.84;48.13;97147.47;4920739;29;19923;-65
2022/09/28 13:03:18;;;;;;;;;;;;;;;17.06;47.69;97139.09;4920855;29;19923;-65
2022/09/28 13:06:04;;;;;;;;;;;;;;;17.27;46.97;97139.78;4905386;29;19923;-65
2022/09/28 13:08:36;;;;;;;;;;;;;;;17.36;46.98;97139.22;4923844;29;20343;-65
2022/09/28 13:11:14;;;;;;;;;;;;;;;17.47;46.24;97136.22;4923455;29;20295;-66
2022/09/28 13:13:46;;;;;;;;;;;;;;;17.49;45.47;97130.56;4922065;29;19930;-65
2022/09/28 13:16:22;;;;;;;;;;;;;;;17.45;45.66;97127.66;4921244;29;19951;-65
2022/09/28 13:18:48;;;;;;;;;;;;;;;17.36;45.16;97133.88;4906581;29;19923;-65
2022/09/28 13:21:38;;;;;;;;;;;;;;;17.12;45.40;97129.19;4919661;29;19947;-66
2022/09/28 13:24:07;;;;;;;;;;;;;;;16.94;45.51;97129.81;4902903;29;20343;-65
2022/09/28 13:26:56;;;;;;;;;;;;;;;16.78;45.33;97121.88;4919176;29;20014;-65
2022/09/28 13:29:23;;;;;;;;;;;;;;;16.76;45.34;97123.22;4919357;29;19927;-65
2022/09/28 13:31:51;;;;;;;;;;;;;;;16.72;45.37;97122.13;4920633;29;19930;-66
2022/09/28 13:34:21;;;;;;;;;;;;;;;16.68;45.25;97127.22;4903597;29;19929;-65